createdAt,value
2018-05-21T00:01:15.585Z,14.67
2018-05-21T00:03:43.182Z,14.66
2018-05-21T00:06:10.859Z,14.77
2018-05-21T00:08:38.530Z,14.83
2018-05-21T00:11:06.327Z,14.78
2018-05-21T00:13:33.945Z,14.76
2018-05-21T00:16:01.790Z,14.71
2018-05-21T00:18:29.506Z,14.65
2018-05-21T00:20:57.143Z,14.59
2018-05-21T00:23:24.792Z,14.46
2018-05-21T00:25:52.455Z,14.38
2018-05-21T00:28:20.150Z,14.29
2018-05-21T00:30:47.778Z,14.22
2018-05-21T00:33:15.377Z,14.26
2018-05-21T00:35:43.018Z,14.25
2018-05-21T00:38:10.749Z,14.08
2018-05-21T00:40:38.339Z,14.17
2018-05-21T00:43:06.087Z,14.06
2018-05-21T00:45:33.682Z,14.08
2018-05-21T00:48:01.286Z,14.07
2018-05-21T00:50:28.907Z,14.12
2018-05-21T00:52:56.499Z,14.18
2018-05-21T00:55:35.874Z,14.17
2018-05-21T00:58:03.465Z,14.14
2018-05-21T01:00:31.190Z,14.11
2018-05-21T01:02:58.823Z,14.15
2018-05-21T01:05:26.434Z,14.15
2018-05-21T01:07:54.026Z,14.11
2018-05-21T01:10:21.661Z,14.11
2018-05-21T01:12:49.252Z,14.05
2018-05-21T01:15:16.844Z,14.02
2018-05-21T01:17:44.466Z,13.99
2018-05-21T01:20:12.879Z,13.99
2018-05-21T01:22:40.587Z,14.03
2018-05-21T01:25:08.233Z,14.00
2018-05-21T01:27:35.831Z,14.02
2018-05-21T01:30:03.439Z,14.04
2018-05-21T01:32:31.072Z,14.03
2018-05-21T01:34:58.655Z,13.85
2018-05-21T01:37:26.245Z,13.79
2018-05-21T01:39:53.888Z,13.82
2018-05-21T01:42:21.494Z,13.79
2018-05-21T01:44:49.089Z,13.89
2018-05-21T01:47:16.731Z,13.94
2018-05-21T01:49:44.326Z,13.91
2018-05-21T01:52:11.925Z,13.87
2018-05-21T01:54:39.754Z,13.79
2018-05-21T01:57:07.340Z,13.83
2018-05-21T01:59:34.951Z,13.74
2018-05-21T02:02:02.681Z,13.62
2018-05-21T02:04:30.284Z,13.52
2018-05-21T02:06:57.874Z,13.54
2018-05-21T02:09:25.496Z,13.61
2018-05-21T02:11:53.089Z,13.49
2018-05-21T02:14:20.680Z,13.47
2018-05-21T02:16:48.342Z,13.43
2018-05-21T02:19:16.185Z,13.56
2018-05-21T02:21:43.838Z,13.64
2018-05-21T02:24:11.467Z,13.57
2018-05-21T02:26:39.156Z,13.48
2018-05-21T02:29:07.029Z,13.33
2018-05-21T02:31:34.660Z,13.23
2018-05-21T02:34:02.275Z,13.35
2018-05-21T02:36:29.876Z,13.25
2018-05-21T02:38:57.513Z,13.15
2018-05-21T02:41:25.102Z,13.29
2018-05-21T02:43:52.688Z,13.30
2018-05-21T02:46:20.324Z,13.29
2018-05-21T02:48:48.115Z,13.30
2018-05-21T02:51:15.706Z,13.19
2018-05-21T02:53:43.363Z,13.13
2018-05-21T02:56:10.972Z,13.25
2018-05-21T02:58:38.567Z,13.22
2018-05-21T03:01:06.211Z,13.36
2018-05-21T03:03:33.813Z,13.38
2018-05-21T03:06:01.417Z,13.32
2018-05-21T03:08:29.209Z,13.46
2018-05-21T03:10:56.872Z,13.50
2018-05-21T03:13:24.468Z,13.58
2018-05-21T03:15:52.121Z,13.55
2018-05-21T03:18:19.713Z,13.59
2018-05-21T03:20:47.523Z,13.54
2018-05-21T03:23:15.159Z,13.34
2018-05-21T03:25:42.756Z,13.45
2018-05-21T03:28:10.388Z,13.51
2018-05-21T03:30:38.058Z,13.60
2018-05-21T03:33:05.667Z,13.71
2018-05-21T03:35:33.259Z,13.86
2018-05-21T03:38:00.958Z,14.08
2018-05-21T03:40:28.617Z,14.47
2018-05-21T03:42:56.335Z,15.74
2018-05-21T03:45:24.202Z,17.20
2018-05-21T03:47:51.944Z,18.54
2018-05-21T03:50:19.668Z,19.67
2018-05-21T03:52:47.323Z,20.73
2018-05-21T03:55:14.995Z,21.73
2018-05-21T03:57:42.597Z,22.32
2018-05-21T04:00:22.002Z,22.83
2018-05-21T04:03:03.078Z,24.09
2018-05-21T04:05:30.771Z,24.19
2018-05-21T04:07:58.348Z,24.41
2018-05-21T04:10:25.911Z,23.89
2018-05-21T04:12:53.553Z,23.82
2018-05-21T04:15:21.270Z,24.15
2018-05-21T04:17:48.848Z,24.27
2018-05-21T04:20:16.476Z,24.58
2018-05-21T04:22:44.070Z,23.66
2018-05-21T04:25:11.645Z,23.74
2018-05-21T04:27:39.258Z,24.44
2018-05-21T04:30:06.839Z,24.70
2018-05-21T04:32:34.418Z,25.51
2018-05-21T04:35:02.041Z,26.14
2018-05-21T04:37:29.632Z,25.57
2018-05-21T04:39:57.237Z,26.72
2018-05-21T04:42:24.927Z,27.17
2018-05-21T04:44:52.525Z,27.53
2018-05-21T04:47:20.107Z,27.53
2018-05-21T04:49:47.736Z,26.93
2018-05-21T04:52:15.506Z,27.50
2018-05-21T04:54:43.140Z,28.22
2018-05-21T04:57:10.827Z,28.94
2018-05-21T04:59:38.418Z,29.18
2018-05-21T05:02:06.024Z,28.68
2018-05-21T05:04:33.628Z,28.54
2018-05-21T05:07:01.272Z,28.19
2018-05-21T05:09:28.849Z,29.16
2018-05-21T05:11:56.492Z,29.68
2018-05-21T05:14:30.020Z,30.34
2018-05-21T05:16:57.655Z,31.56
2018-05-21T05:19:25.239Z,31.64
2018-05-21T05:21:52.804Z,30.91
2018-05-21T05:24:20.438Z,31.33
2018-05-21T05:26:48.102Z,31.18
2018-05-21T05:29:15.684Z,32.13
2018-05-21T05:31:43.308Z,33.02
2018-05-21T05:34:11.084Z,33.29
2018-05-21T05:36:38.659Z,32.98
2018-05-21T05:39:06.404Z,32.66
2018-05-21T05:41:34.063Z,34.58
2018-05-21T05:44:01.924Z,33.42
2018-05-21T05:46:29.533Z,33.82
2018-05-21T05:48:57.163Z,34.09
2018-05-21T05:51:24.921Z,34.73
2018-05-21T05:53:52.528Z,35.49
2018-05-21T05:56:20.097Z,35.39
2018-05-21T05:58:47.684Z,35.32
2018-05-21T06:01:15.367Z,34.82
2018-05-21T06:03:43.037Z,35.11
2018-05-21T06:06:10.686Z,35.14
2018-05-21T06:08:38.340Z,33.28
2018-05-21T06:11:05.920Z,34.21
2018-05-21T06:13:33.685Z,34.59
2018-05-21T06:16:01.402Z,34.49
2018-05-21T06:18:29.011Z,34.01
2018-05-21T06:20:56.660Z,34.37
2018-05-21T06:23:24.319Z,35.44
2018-05-21T06:25:52.086Z,35.48
2018-05-21T06:28:19.808Z,36.34
2018-05-21T06:30:47.526Z,36.64
2018-05-21T06:33:15.106Z,35.39
2018-05-21T06:35:42.696Z,35.25
2018-05-21T06:38:10.715Z,35.95
2018-05-21T06:40:38.313Z,36.07
2018-05-21T06:43:06.146Z,35.60
2018-05-21T06:45:33.893Z,36.87
2018-05-21T06:48:01.556Z,37.90
2018-05-21T06:50:29.143Z,36.87
2018-05-21T06:52:56.761Z,36.93
2018-05-21T06:55:24.600Z,36.18
2018-05-21T06:57:52.221Z,36.39
2018-05-21T07:00:19.869Z,36.60
2018-05-21T07:02:47.533Z,35.11
2018-05-21T07:05:15.197Z,35.86
2018-05-21T07:07:42.828Z,35.25
2018-05-21T07:10:10.515Z,35.59
2018-05-21T07:12:38.105Z,36.42
2018-05-21T07:15:05.843Z,36.15
2018-05-21T07:17:33.439Z,35.19
2018-05-21T07:20:01.166Z,34.64
2018-05-21T07:22:28.837Z,34.97
2018-05-21T07:24:56.491Z,36.74
2018-05-21T07:27:24.091Z,36.89
2018-05-21T07:29:51.844Z,37.18
2018-05-21T07:32:19.498Z,36.14
2018-05-21T07:34:47.145Z,35.24
2018-05-21T07:37:14.772Z,35.02
2018-05-21T07:39:42.460Z,35.28
2018-05-21T07:42:10.048Z,35.75
2018-05-21T07:44:37.793Z,34.06
2018-05-21T07:47:05.465Z,33.53
2018-05-21T07:49:33.111Z,34.34
2018-05-21T07:52:00.736Z,35.46
2018-05-21T07:54:28.328Z,35.82
2018-05-21T07:56:55.909Z,35.98
2018-05-21T07:59:23.579Z,36.08
2018-05-21T08:01:51.223Z,35.32
2018-05-21T08:04:18.882Z,34.89
2018-05-21T08:06:46.561Z,34.09
2018-05-21T08:09:14.220Z,33.85
2018-05-21T08:11:41.807Z,32.36
2018-05-21T08:14:09.531Z,32.21
2018-05-21T08:16:37.111Z,32.10
2018-05-21T08:19:04.696Z,32.21
2018-05-21T08:21:32.335Z,32.68
2018-05-21T08:23:59.990Z,33.66
2018-05-21T08:26:27.655Z,32.17
2018-05-21T08:28:55.329Z,31.78
2018-05-21T08:31:22.934Z,32.62
2018-05-21T08:33:50.511Z,32.30
2018-05-21T08:36:18.284Z,31.59
2018-05-21T08:38:45.953Z,31.27
2018-05-21T08:41:13.540Z,31.29
2018-05-21T08:43:41.464Z,31.88
2018-05-21T08:46:09.051Z,30.68
2018-05-21T08:48:36.652Z,31.30
2018-05-21T08:51:04.279Z,31.25
2018-05-21T08:53:31.899Z,30.65
2018-05-21T08:55:59.483Z,29.73
2018-05-21T08:58:27.261Z,31.19
2018-05-21T09:00:54.847Z,32.22
2018-05-21T09:03:22.438Z,31.45
2018-05-21T09:05:50.068Z,31.70
2018-05-21T09:08:17.648Z,32.36
2018-05-21T09:10:45.224Z,32.05
2018-05-21T09:13:12.834Z,32.14
2018-05-21T09:15:40.488Z,31.81
2018-05-21T09:18:08.092Z,34.00
2018-05-21T09:20:35.700Z,33.63
2018-05-21T09:23:03.277Z,32.32
2018-05-21T09:25:30.844Z,31.23
2018-05-21T09:27:58.612Z,32.67
2018-05-21T09:30:26.196Z,33.77
2018-05-21T09:32:53.911Z,33.87
2018-05-21T09:35:21.545Z,35.14
2018-05-21T09:37:49.125Z,35.79
2018-05-21T09:40:16.711Z,35.30
2018-05-21T09:42:44.305Z,34.22
2018-05-21T09:45:12.025Z,34.47
2018-05-21T09:47:40.472Z,33.82
2018-05-21T09:50:08.144Z,32.24
2018-05-21T09:52:35.723Z,32.24
2018-05-21T09:55:03.306Z,32.21
2018-05-21T09:57:30.915Z,31.59
2018-05-21T09:59:58.490Z,32.23
2018-05-21T10:02:26.054Z,33.82
2018-05-21T10:04:53.668Z,33.41
2018-05-21T10:07:21.248Z,30.96
2018-05-21T10:09:48.853Z,29.11
2018-05-21T10:12:16.468Z,28.64
2018-05-21T10:14:44.181Z,28.68
2018-05-21T10:17:11.756Z,29.88
2018-05-21T10:19:39.374Z,31.18
2018-05-21T10:22:07.138Z,30.53
2018-05-21T10:24:34.812Z,30.96
2018-05-21T10:27:02.451Z,32.07
2018-05-21T10:29:30.031Z,31.74
2018-05-21T10:31:57.608Z,32.38
2018-05-21T10:34:25.212Z,32.98
2018-05-21T10:36:52.783Z,31.49
2018-05-21T10:39:20.414Z,30.48
2018-05-21T10:41:48.140Z,29.51
2018-05-21T10:44:15.707Z,28.46
2018-05-21T10:46:43.292Z,28.10
2018-05-21T10:49:10.903Z,27.74
2018-05-21T10:51:38.513Z,27.59
2018-05-21T10:54:06.262Z,27.03
2018-05-21T10:56:33.866Z,26.82
2018-05-21T10:59:01.474Z,26.75
2018-05-21T11:01:29.058Z,26.45
2018-05-21T11:03:56.712Z,26.55
2018-05-21T11:06:24.301Z,26.79
2018-05-21T11:08:51.901Z,27.02
2018-05-21T11:11:19.520Z,26.96
2018-05-21T11:13:47.128Z,26.64
2018-05-21T11:16:14.711Z,26.55
2018-05-21T11:18:42.363Z,25.97
2018-05-21T11:21:09.938Z,25.33
2018-05-21T11:23:37.595Z,25.30
2018-05-21T11:26:05.251Z,24.69
2018-05-21T11:28:32.847Z,24.35
2018-05-21T11:31:00.505Z,24.39
2018-05-21T11:33:28.082Z,23.98
2018-05-21T11:35:55.688Z,23.97
2018-05-21T11:38:23.268Z,23.78
2018-05-21T11:40:50.898Z,23.51
2018-05-21T11:43:18.484Z,23.71
2018-05-21T11:45:46.063Z,23.92
2018-05-21T11:48:13.679Z,24.06
2018-05-21T11:50:41.268Z,24.25
2018-05-21T11:53:08.927Z,24.25
2018-05-21T11:55:36.721Z,24.64
2018-05-21T11:58:04.317Z,24.87
2018-05-21T12:00:31.875Z,25.57
2018-05-21T12:02:59.472Z,26.95
2018-05-21T12:05:27.056Z,28.09
2018-05-21T12:07:54.633Z,28.45
2018-05-21T12:10:22.255Z,28.49
2018-05-21T12:12:49.834Z,28.60
2018-05-21T12:15:17.581Z,28.58
2018-05-21T12:17:45.205Z,28.43
2018-05-21T12:20:12.812Z,28.33
2018-05-21T12:22:40.381Z,29.08
2018-05-21T12:25:08.016Z,29.99
2018-05-21T12:27:35.861Z,30.39
2018-05-21T12:30:03.473Z,31.79
2018-05-21T12:32:31.096Z,32.97
2018-05-21T12:34:58.684Z,31.95
2018-05-21T12:37:26.274Z,30.49
2018-05-21T12:39:53.947Z,29.62
2018-05-21T12:42:21.527Z,29.38
2018-05-21T12:44:49.116Z,29.31
2018-05-21T12:47:16.755Z,29.18
2018-05-21T12:49:44.341Z,29.28
2018-05-21T12:52:11.926Z,29.55
2018-05-21T12:54:39.600Z,30.16
2018-05-21T12:57:07.143Z,29.73
2018-05-21T12:59:34.729Z,29.52
2018-05-21T13:02:02.343Z,29.36
2018-05-21T13:04:29.937Z,29.37
2018-05-21T13:06:57.530Z,29.26
2018-05-21T13:09:25.129Z,29.31
2018-05-21T13:11:52.717Z,29.13
2018-05-21T13:14:20.303Z,28.67
2018-05-21T13:16:47.915Z,28.55
2018-05-21T13:19:15.544Z,27.96
2018-05-21T13:21:43.132Z,27.75
2018-05-21T13:24:10.850Z,27.26
2018-05-21T13:26:38.367Z,26.98
2018-05-21T13:29:05.913Z,27.05
2018-05-21T13:31:33.517Z,26.86
2018-05-21T13:34:01.099Z,27.01
2018-05-21T13:36:28.670Z,26.97
2018-05-21T13:38:56.273Z,27.16
2018-05-21T13:41:23.855Z,27.12
2018-05-21T13:43:51.430Z,27.19
2018-05-21T13:46:19.035Z,27.23
2018-05-21T13:48:46.611Z,27.20
2018-05-21T13:51:14.204Z,27.01
2018-05-21T13:53:41.821Z,26.95
2018-05-21T13:56:09.391Z,26.84
2018-05-21T13:58:36.982Z,26.87
2018-05-21T14:01:04.683Z,26.94
2018-05-21T14:03:32.303Z,27.02
2018-05-21T14:05:59.874Z,27.05
2018-05-21T14:08:27.505Z,27.19
2018-05-21T14:10:55.092Z,27.15
2018-05-21T14:13:22.671Z,27.13
2018-05-21T14:15:50.323Z,27.11
2018-05-21T14:18:17.908Z,27.04
2018-05-21T14:20:45.501Z,26.98
2018-05-21T14:23:13.122Z,27.06
2018-05-21T14:25:40.694Z,26.90
2018-05-21T14:28:08.281Z,26.85
2018-05-21T14:30:35.931Z,26.86
2018-05-21T14:33:03.557Z,26.93
2018-05-21T14:35:31.109Z,26.84
2018-05-21T14:37:59.024Z,26.93
2018-05-21T14:40:26.656Z,27.17
2018-05-21T14:42:54.235Z,27.36
2018-05-21T14:45:22.008Z,26.98
2018-05-21T14:47:49.586Z,26.38
2018-05-21T14:50:17.162Z,25.79
2018-05-21T14:52:44.788Z,25.38
2018-05-21T14:55:12.360Z,24.76
2018-05-21T14:57:39.929Z,23.97
2018-05-21T15:00:07.533Z,23.58
2018-05-21T15:02:35.111Z,22.70
2018-05-21T15:05:02.672Z,22.12
2018-05-21T15:07:30.308Z,21.61
2018-05-21T15:09:58.001Z,20.99
2018-05-21T15:12:25.890Z,20.34
2018-05-21T15:14:53.546Z,20.05
2018-05-21T15:17:21.109Z,19.98
2018-05-21T15:19:48.670Z,19.88
2018-05-21T15:22:16.345Z,19.93
2018-05-21T15:24:43.873Z,19.98
2018-05-21T15:27:11.442Z,20.17
2018-05-21T15:29:39.102Z,20.45
2018-05-21T15:32:06.713Z,20.70
2018-05-21T15:34:34.291Z,20.94
2018-05-21T15:37:01.889Z,21.07
2018-05-21T15:39:29.525Z,21.18
2018-05-21T15:41:57.088Z,21.30
2018-05-21T15:44:24.985Z,21.32
2018-05-21T15:46:52.557Z,21.30
2018-05-21T15:49:20.153Z,21.27
2018-05-21T15:51:47.954Z,21.28
2018-05-21T15:54:15.556Z,21.31
2018-05-21T15:56:43.391Z,21.34
2018-05-21T15:59:10.993Z,21.44
2018-05-21T16:01:38.572Z,21.47
2018-05-21T16:04:06.177Z,21.45
2018-05-21T16:06:33.784Z,21.40
2018-05-21T16:09:01.386Z,21.33
2018-05-21T16:11:28.962Z,21.37
2018-05-21T16:13:56.563Z,21.28
2018-05-21T16:16:24.276Z,21.22
2018-05-21T16:18:51.990Z,21.23
2018-05-21T16:21:19.676Z,21.09
2018-05-21T16:23:47.243Z,21.11
2018-05-21T16:26:14.808Z,21.21
2018-05-21T16:28:42.453Z,21.20
2018-05-21T16:31:10.054Z,21.23
2018-05-21T16:33:37.646Z,21.27
2018-05-21T16:36:05.477Z,21.25
2018-05-21T16:38:33.137Z,21.29
2018-05-21T16:41:00.715Z,21.31
2018-05-21T16:43:28.316Z,21.30
2018-05-21T16:45:55.884Z,21.31
2018-05-21T16:48:23.447Z,21.32
2018-05-21T16:50:51.068Z,21.34
2018-05-21T16:53:18.692Z,21.31
2018-05-21T16:55:46.275Z,21.33
2018-05-21T16:58:13.856Z,21.32
2018-05-21T17:00:41.494Z,21.32
2018-05-21T17:03:09.089Z,21.27
2018-05-21T17:05:36.707Z,21.18
2018-05-21T17:08:04.326Z,21.19
2018-05-21T17:10:31.921Z,21.07
2018-05-21T17:12:59.511Z,20.98
2018-05-21T17:15:27.186Z,20.93
2018-05-21T17:17:54.740Z,20.89
2018-05-21T17:20:22.381Z,20.83
2018-05-21T17:22:50.155Z,20.74
2018-05-21T17:25:17.729Z,20.66
2018-05-21T17:27:45.293Z,20.61
2018-05-21T17:30:12.910Z,20.50
2018-05-21T17:32:40.490Z,20.39
2018-05-21T17:35:08.052Z,20.32
2018-05-21T17:37:35.648Z,20.25
2018-05-21T17:40:03.212Z,20.18
2018-05-21T17:42:30.818Z,20.17
2018-05-21T17:44:58.416Z,20.17
2018-05-21T17:47:25.988Z,20.14
2018-05-21T17:49:53.600Z,20.15
2018-05-21T17:52:21.215Z,20.13
2018-05-21T17:54:48.814Z,20.16
2018-05-21T17:57:16.465Z,20.14
2018-05-21T17:59:44.025Z,20.12
2018-05-21T18:02:11.582Z,20.10
2018-05-21T18:04:39.172Z,20.09
2018-05-21T18:07:06.782Z,20.07
2018-05-21T18:09:34.391Z,20.05
2018-05-21T18:12:01.988Z,20.07
2018-05-21T18:14:29.622Z,20.10
2018-05-21T18:16:57.210Z,20.11
2018-05-21T18:19:24.810Z,20.12
2018-05-21T18:21:52.431Z,20.10
2018-05-21T18:24:20.008Z,20.11
2018-05-21T18:26:47.626Z,20.07
2018-05-21T18:29:15.250Z,20.08
2018-05-21T18:31:42.874Z,20.10
2018-05-21T18:34:10.599Z,20.09
2018-05-21T18:36:38.215Z,20.05
2018-05-21T18:39:06.925Z,20.01
2018-05-21T18:41:34.485Z,20.07
2018-05-21T18:44:02.124Z,20.05
2018-05-21T18:46:29.733Z,20.00
2018-05-21T18:48:57.390Z,19.98
2018-05-21T18:51:25.030Z,19.89
2018-05-21T18:53:52.742Z,19.81
2018-05-21T18:56:20.332Z,19.83
2018-05-21T18:58:47.951Z,19.72
2018-05-21T19:01:15.540Z,19.64
2018-05-21T19:03:43.127Z,19.60
2018-05-21T19:06:10.857Z,19.53
2018-05-21T19:08:38.404Z,19.50
2018-05-21T19:11:05.987Z,19.49
2018-05-21T19:13:33.608Z,19.47
2018-05-21T19:16:01.183Z,19.46
2018-05-21T19:18:28.773Z,19.39
2018-05-21T19:20:56.385Z,19.41
2018-05-21T19:23:23.964Z,19.32
2018-05-21T19:25:51.547Z,19.33
2018-05-21T19:28:19.347Z,19.31
2018-05-21T19:30:46.933Z,19.24
2018-05-21T19:33:14.672Z,19.25
2018-05-21T19:35:42.266Z,19.27
2018-05-21T19:38:09.843Z,19.23
2018-05-21T19:40:37.577Z,19.27
2018-05-21T19:43:05.316Z,19.26
2018-05-21T19:45:33.170Z,19.18
2018-05-21T19:48:01.569Z,19.07
2018-05-21T19:50:29.188Z,18.97
2018-05-21T19:52:56.757Z,18.94
2018-05-21T19:55:24.342Z,18.90
2018-05-21T19:57:52.019Z,18.84
2018-05-21T20:00:19.613Z,18.81
2018-05-21T20:02:47.361Z,18.66
2018-05-21T20:05:15.209Z,18.61
2018-05-21T20:07:42.794Z,18.53
2018-05-21T20:10:10.549Z,18.44
2018-05-21T20:12:38.416Z,18.40
2018-05-21T20:15:05.987Z,18.33
2018-05-21T20:17:33.608Z,18.29
2018-05-21T20:20:01.213Z,18.34
2018-05-21T20:22:28.946Z,18.34
2018-05-21T20:24:56.622Z,18.32
2018-05-21T20:27:24.289Z,18.34
2018-05-21T20:29:52.027Z,18.34
2018-05-21T20:32:19.691Z,18.31
2018-05-21T20:34:47.357Z,18.22
2018-05-21T20:37:15.026Z,18.10
2018-05-21T20:39:42.649Z,18.06
2018-05-21T20:42:10.230Z,18.01
2018-05-21T20:44:37.784Z,17.93
2018-05-21T20:47:05.397Z,17.86
2018-05-21T20:49:32.949Z,17.78
2018-05-21T20:52:00.524Z,17.75
2018-05-21T20:54:28.239Z,17.65
2018-05-21T20:56:55.810Z,17.61
2018-05-21T20:59:23.558Z,17.55
2018-05-21T21:01:51.148Z,17.46
2018-05-21T21:04:18.881Z,17.33
2018-05-21T21:06:46.453Z,17.33
2018-05-21T21:09:14.076Z,17.32
2018-05-21T21:11:41.643Z,17.25
2018-05-21T21:14:09.212Z,17.22
2018-05-21T21:16:37.013Z,17.14
2018-05-21T21:19:04.878Z,17.09
2018-05-21T21:21:32.468Z,17.03
2018-05-21T21:24:00.125Z,17.05
2018-05-21T21:26:27.852Z,17.08
2018-05-21T21:28:55.737Z,17.09
2018-05-21T21:31:23.424Z,17.10
2018-05-21T21:33:51.262Z,17.04
2018-05-21T21:36:18.871Z,17.06
2018-05-21T21:38:46.447Z,17.02
2018-05-21T21:41:14.064Z,16.96
2018-05-21T21:43:41.904Z,16.96
2018-05-21T21:46:09.547Z,16.86
2018-05-21T21:48:37.240Z,16.81
2018-05-21T21:51:04.850Z,16.79
2018-05-21T21:53:32.564Z,16.74
2018-05-21T21:56:00.264Z,16.64
2018-05-21T21:58:28.035Z,16.63
2018-05-21T22:00:55.892Z,16.69
2018-05-21T22:03:23.471Z,16.67
2018-05-21T22:05:51.283Z,16.65
2018-05-21T22:08:18.946Z,16.61
2018-05-21T22:10:46.530Z,16.49
2018-05-21T22:13:14.252Z,16.47
2018-05-21T22:15:41.836Z,16.50
2018-05-21T22:18:09.578Z,16.46
2018-05-21T22:20:37.194Z,16.44
2018-05-21T22:23:04.901Z,16.41
2018-05-21T22:25:32.475Z,16.41
2018-05-21T22:28:00.096Z,16.38
2018-05-21T22:30:27.681Z,16.33
2018-05-21T22:32:55.256Z,16.36
2018-05-21T22:35:23.020Z,16.34
2018-05-21T22:37:50.676Z,16.28
2018-05-21T22:40:18.270Z,16.23
2018-05-21T22:42:47.086Z,16.22
2018-05-21T22:45:14.675Z,16.17
2018-05-21T22:47:42.262Z,16.18
2018-05-21T22:50:09.891Z,16.18
2018-05-21T22:52:37.679Z,16.16
2018-05-21T22:55:05.271Z,16.12
2018-05-21T22:57:32.999Z,16.14
2018-05-21T23:00:00.584Z,16.14
2018-05-21T23:02:28.154Z,16.12
2018-05-21T23:04:55.981Z,16.02
2018-05-21T23:07:23.564Z,16.10
2018-05-21T23:09:51.140Z,16.10
2018-05-21T23:12:18.757Z,16.17
2018-05-21T23:14:46.408Z,16.16
2018-05-21T23:17:14.074Z,16.19
2018-05-21T23:19:41.757Z,16.20
2018-05-21T23:22:12.500Z,16.22
2018-05-21T23:24:40.141Z,16.10
2018-05-21T23:27:07.757Z,16.10
2018-05-21T23:29:35.347Z,16.07
2018-05-21T23:32:02.932Z,16.04
2018-05-21T23:34:30.553Z,15.99
2018-05-21T23:36:58.142Z,16.05
2018-05-21T23:39:25.975Z,16.04
2018-05-21T23:41:53.591Z,15.98
2018-05-21T23:44:21.285Z,15.98
2018-05-21T23:46:48.917Z,15.99
2018-05-21T23:49:16.783Z,15.91
2018-05-21T23:51:44.359Z,15.85
2018-05-21T23:54:12.254Z,15.77
2018-05-21T23:56:40.094Z,15.68
2018-05-21T23:59:07.825Z,15.63
